Time;durP1;ratioP1;P1;durP2;ratioP2;P2;SDS_P1;SDS_P2;PMS_P1;PMS_P2;Temp;Humidity;BMP_temperature;BMP_pressure;BME280_temperature;BME280_humidity;BME280_pressure;Samples;Min_cycle;Max_cycle;Signal;HPM_P1;HPM_P2
2021/10/16 00:01:26;;;;;;;2.33;1.25;;;3.20;99.90;;;;;;5078727;28;20017;-72
2021/10/16 00:03:52;;;;;;;1.58;1.05;;;3.40;99.90;;;;;;5088325;28;20023;-73
2021/10/16 00:06:17;;;;;;;1.50;1.02;;;3.40;99.90;;;;;;5082790;28;20374;-74
2021/10/16 00:08:44;;;;;;;1.45;1.30;;;3.20;99.90;;;;;;5085132;28;20024;-73
2021/10/16 00:11:10;;;;;;;1.15;0.90;;;3.10;99.90;;;;;;5087201;28;20036;-74
2021/10/16 00:13:36;;;;;;;1.60;1.25;;;3.10;99.90;;;;;;5084789;28;20021;-72
2021/10/16 00:16:03;;;;;;;9.70;1.20;;;3.10;99.90;;;;;;5070608;28;20384;-72
2021/10/16 00:18:29;;;;;;;1.08;0.85;;;3.10;99.90;;;;;;5085295;28;20509;-72
2021/10/16 00:20:56;;;;;;;0.77;0.73;;;3.00;99.90;;;;;;5064475;28;20029;-73
2021/10/16 00:23:22;;;;;;;3.47;1.00;;;3.00;99.90;;;;;;5072065;28;20473;-73
2021/10/16 00:25:48;;;;;;;0.80;0.80;;;3.00;99.90;;;;;;5065682;28;20088;-73
2021/10/16 00:28:13;;;;;;;1.85;0.90;;;3.10;99.90;;;;;;5059899;28;20116;-73
2021/10/16 00:30:39;;;;;;;1.25;0.80;;;3.30;99.90;;;;;;5089427;28;20762;-72
2021/10/16 00:33:05;;;;;;;1.90;1.02;;;3.30;99.90;;;;;;5078665;28;20472;-72
2021/10/16 00:35:30;;;;;;;3.35;1.13;;;3.30;99.90;;;;;;5075276;28;20209;-72
2021/10/16 00:37:56;;;;;;;1.23;0.98;;;3.10;99.90;;;;;;5059771;28;20024;-73
2021/10/16 00:40:22;;;;;;;0.82;0.80;;;3.00;99.90;;;;;;5082167;28;20060;-75
2021/10/16 00:42:53;;;;;;;1.00;0.80;;;3.00;99.90;;;;;;5069669;28;20020;-72
2021/10/16 00:45:20;;;;;;;0.82;0.80;;;3.00;99.90;;;;;;5089605;28;20025;-72
2021/10/16 00:47:47;;;;;;;2.40;1.20;;;3.00;99.90;;;;;;5056790;28;20039;-73
2021/10/16 00:50:13;;;;;;;5.70;1.23;;;3.00;99.90;;;;;;5070775;28;20120;-72
2021/10/16 00:52:40;;;;;;;1.05;0.90;;;2.90;99.90;;;;;;5084139;28;21363;-72
2021/10/16 00:55:14;;;;;;;3.78;1.38;;;2.90;99.90;;;;;;5079723;28;20040;-72
2021/10/16 00:57:40;;;;;;;2.03;0.80;;;2.90;99.90;;;;;;5082448;28;20058;-72
2021/10/16 01:00:08;;;;;;;1.30;0.80;;;3.00;99.90;;;;;;5065117;28;20085;-71
2021/10/16 01:02:35;;;;;;;2.17;1.45;;;3.00;99.90;;;;;;5071353;28;20074;-73
2021/10/16 01:05:01;;;;;;;2.40;1.05;;;3.10;99.90;;;;;;5088878;28;20158;-72
2021/10/16 01:07:28;;;;;;;3.72;1.10;;;3.00;99.90;;;;;;5071998;28;20511;-73
2021/10/16 01:09:55;;;;;;;3.05;1.00;;;3.20;99.90;;;;;;5085787;28;20058;-74
2021/10/16 01:12:21;;;;;;;2.35;1.30;;;3.30;99.90;;;;;;5075180;28;20109;-72
2021/10/16 01:15:03;;;;;;;2.03;1.35;;;3.50;99.90;;;;;;5083265;28;20029;-72
2021/10/16 01:17:31;;;;;;;2.67;1.33;;;3.40;99.90;;;;;;5081667;28;20115;-73
2021/10/16 01:20:13;;;;;;;1.10;0.80;;;3.30;99.90;;;;;;5087630;28;20522;-72
2021/10/16 01:22:40;;;;;;;6.65;1.45;;;3.20;99.90;;;;;;5080215;28;20383;-72
2021/10/16 01:25:12;;;;;;;2.15;1.10;;;3.20;99.90;;;;;;5089471;28;20110;-72
2021/10/16 01:27:39;;;;;;;3.22;1.42;;;3.30;99.90;;;;;;5088420;28;20031;-72
2021/10/16 01:30:07;;;;;;;1.98;1.02;;;3.10;99.90;;;;;;5088156;28;20036;-73
2021/10/16 01:32:36;;;;;;;2.30;1.35;;;3.00;99.90;;;;;;5088213;28;20403;-72
2021/10/16 01:35:04;;;;;;;1.60;1.02;;;2.90;99.90;;;;;;5088335;28;20391;-72
2021/10/16 01:37:29;;;;;;;2.33;1.25;;;3.10;99.90;;;;;;5074482;28;20021;-72
2021/10/16 01:39:55;;;;;;;1.23;0.98;;;3.00;99.90;;;;;;5085174;28;20249;-74
2021/10/16 01:42:21;;;;;;;3.00;1.63;;;3.00;99.90;;;;;;5084671;28;20029;-72
2021/10/16 01:44:46;;;;;;;1.77;0.95;;;2.90;99.90;;;;;;5087040;28;20020;-72
2021/10/16 01:47:12;;;;;;;1.58;1.17;;;2.90;99.90;;;;;;5087404;28;20099;-71
2021/10/16 01:49:37;;;;;;;1.88;1.23;;;3.00;99.90;;;;;;5083207;28;20059;-72
2021/10/16 01:52:04;;;;;;;1.38;1.00;;;3.00;99.90;;;;;;5084696;28;20035;-72
2021/10/16 01:54:29;;;;;;;3.42;1.38;;;3.20;99.90;;;;;;5081512;28;20028;-72
2021/10/16 01:56:56;;;;;;;1.73;1.20;;;3.40;99.90;;;;;;5081130;28;20053;-72
2021/10/16 01:59:24;;;;;;;2.15;1.10;;;3.50;99.90;;;;;;5077432;28;20024;-71
2021/10/16 02:01:50;;;;;;;3.30;1.90;;;3.40;99.90;;;;;;5083658;28;20051;-74
2021/10/16 02:04:16;;;;;;;0.98;0.88;;;;;;;;;;5084736;28;20056;-72
2021/10/16 02:06:43;;;;;;;6.18;1.63;;;3.80;99.90;;;;;;5084530;28;20551;-72
2021/10/16 02:09:09;;;;;;;1.17;0.93;;;3.80;99.90;;;;;;5086019;28;20031;-72
2021/10/16 02:11:35;;;;;;;1.77;1.35;;;3.60;99.90;;;;;;5079442;28;20036;-72
2021/10/16 02:14:03;;;;;;;1.80;0.95;;;3.70;99.90;;;;;;5082944;28;20063;-73
2021/10/16 02:16:29;;;;;;;4.97;1.42;;;3.70;99.90;;;;;;5073151;28;20029;-72
2021/10/16 02:18:55;;;;;;;1.90;1.15;;;4.00;99.90;;;;;;5086069;28;20043;-73
2021/10/16 02:21:22;;;;;;;1.73;1.27;;;4.00;99.90;;;;;;5090795;28;20025;-72
2021/10/16 02:23:47;;;;;;;2.45;1.27;;;3.70;99.90;;;;;;5079449;28;20020;-73
2021/10/16 02:26:14;;;;;;;3.35;1.98;;;3.60;99.90;;;;;;5089855;28;20038;-72
2021/10/16 02:28:39;;;;;;;2.92;1.02;;;3.40;99.90;;;;;;5084726;28;20092;-72
2021/10/16 02:31:05;;;;;;;3.78;1.35;;;3.20;99.90;;;;;;5079466;28;20483;-73
2021/10/16 02:33:30;;;;;;;1.80;1.20;;;3.00;99.90;;;;;;5086777;28;20020;-72
2021/10/16 02:35:56;;;;;;;2.97;1.67;;;3.00;99.90;;;;;;5064881;28;20544;-72
2021/10/16 02:38:22;;;;;;;2.63;1.40;;;2.90;99.90;;;;;;5061116;28;20668;-73
2021/10/16 02:40:47;;;;;;;2.85;1.25;;;3.00;99.90;;;;;;5082399;28;20034;-71
2021/10/16 02:43:13;;;;;;;3.10;1.15;;;2.90;99.90;;;;;;5084898;28;20020;-72
2021/10/16 02:45:38;;;;;;;2.35;1.27;;;3.00;99.90;;;;;;5086455;28;20032;-72
2021/10/16 02:48:04;;;;;;;4.32;1.60;;;3.10;99.90;;;;;;5081260;28;20421;-72
2021/10/16 02:50:30;;;;;;;1.23;1.00;;;3.00;99.90;;;;;;5083776;28;20023;-73
2021/10/16 02:52:55;;;;;;;2.35;1.40;;;3.00;99.90;;;;;;5078450;28;20024;-72
2021/10/16 02:55:21;;;;;;;3.25;1.48;;;2.90;99.90;;;;;;5070257;28;20467;-72
2021/10/16 02:57:47;;;;;;;0.65;0.65;;;3.00;99.90;;;;;;5082512;28;20039;-71
2021/10/16 03:00:13;;;;;;;1.05;0.95;;;3.30;99.90;;;;;;5082583;28;20073;-72
2021/10/16 03:02:38;;;;;;;4.07;1.55;;;3.20;99.90;;;;;;5085570;28;20017;-72
2021/10/16 03:05:05;;;;;;;1.00;0.77;;;3.10;99.90;;;;;;5064451;28;20422;-73
2021/10/16 03:07:31;;;;;;;2.40;1.17;;;3.20;99.90;;;;;;5091190;28;20096;-72
2021/10/16 03:09:57;;;;;;;1.50;1.05;;;3.10;99.90;;;;;;5070162;28;20176;-72
2021/10/16 03:12:22;;;;;;;2.22;1.02;;;3.10;99.90;;;;;;5078533;28;20394;-72
2021/10/16 03:14:48;;;;;;;2.30;0.98;;;3.00;99.90;;;;;;5060882;28;20028;-71
2021/10/16 03:17:14;;;;;;;2.97;1.58;;;3.10;99.90;;;;;;5063511;28;20494;-72
2021/10/16 03:19:40;;;;;;;2.83;1.27;;;3.00;99.90;;;;;;5089607;28;20028;-75
2021/10/16 03:22:07;;;;;;;1.50;1.08;;;2.90;99.90;;;;;;5084858;28;20028;-72
2021/10/16 03:24:34;;;;;;;5.18;1.10;;;3.00;99.90;;;;;;5062156;28;20528;-71
2021/10/16 03:27:00;;;;;;;1.63;1.08;;;3.00;99.90;;;;;;5073494;28;20031;-72
2021/10/16 03:29:25;;;;;;;1.17;0.90;;;2.90;99.90;;;;;;5070230;28;20418;-71
2021/10/16 03:31:51;;;;;;;3.35;1.55;;;3.00;99.90;;;;;;5084925;28;20050;-72
2021/10/16 03:34:17;;;;;;;2.63;1.27;;;3.10;99.90;;;;;;5058670;28;20505;-71
2021/10/16 03:36:43;;;;;;;1.80;1.08;;;3.10;99.90;;;;;;5079311;28;20024;-72
2021/10/16 03:39:08;;;;;;;;;;;3.00;99.90;;;;;;5086277;28;20044;-73
2021/10/16 03:41:34;;;;;;;;;;;2.80;99.90;;;;;;5084167;28;19950;-72
2021/10/16 03:43:59;;;;;;;;;;;2.70;99.90;;;;;;5078177;28;20423;-71
2021/10/16 03:46:24;;;;;;;;;;;2.80;99.90;;;;;;5078369;28;19908;-71
2021/10/16 03:48:50;;;;;;;;;;;2.70;99.90;;;;;;5066407;28;20325;-72
2021/10/16 03:51:15;;;;;;;;;;;2.60;99.90;;;;;;5080294;28;19991;-72
2021/10/16 03:53:41;;;;;;;;;;;2.60;99.90;;;;;;5082443;28;19999;-72
2021/10/16 03:56:07;;;;;;;;;;;2.50;99.90;;;;;;5064319;28;19911;-72
2021/10/16 03:58:32;;;;;;;;;;;2.40;99.90;;;;;;5081855;28;19916;-72
2021/10/16 04:01:02;;;;;;;;;;;2.50;99.90;;;;;;5085647;28;19912;-72
2021/10/16 04:03:28;;;;;;;;;;;2.50;99.90;;;;;;5089109;28;19938;-72
2021/10/16 04:05:54;;;;;;;;;;;2.70;99.90;;;;;;5081830;28;19943;-72
2021/10/16 04:08:19;;;;;;;;;;;2.90;99.90;;;;;;5088795;28;20252;-72
2021/10/16 04:10:45;;;;;;;;;;;3.00;99.90;;;;;;5079250;28;24083;-72
2021/10/16 04:13:11;;;;;;;;;;;3.10;99.90;;;;;;5079593;28;19912;-73
2021/10/16 04:15:37;;;;;;;;;;;3.10;99.90;;;;;;5081296;28;19908;-72
2021/10/16 04:18:02;;;;;;;;;;;3.10;99.90;;;;;;5077652;28;19905;-71
2021/10/16 04:20:28;;;;;;;;;;;3.30;99.90;;;;;;5082650;28;20010;-76
2021/10/16 04:22:53;;;;;;;;;;;3.00;99.90;;;;;;5075711;28;24099;-71
2021/10/16 04:25:19;;;;;;;;;;;2.80;99.90;;;;;;5069105;28;19908;-73
2021/10/16 04:27:44;;;;;;;;;;;2.60;99.90;;;;;;5080328;28;19957;-71
2021/10/16 04:30:10;;;;;;;;;;;2.40;99.90;;;;;;5087260;28;24095;-74
2021/10/16 04:32:35;;;;;;;;;;;2.30;99.90;;;;;;5076350;28;19919;-72
2021/10/16 04:35:05;;;;;;;;;;;2.30;99.90;;;;;;5077049;28;19908;-71
2021/10/16 04:37:31;;;;;;;;;;;2.40;99.90;;;;;;5075506;28;19908;-71
2021/10/16 04:39:56;;;;;;;;;;;2.30;99.90;;;;;;5078991;28;19912;-72
2021/10/16 04:42:22;;;;;;;;;;;2.30;99.90;;;;;;5080590;28;19939;-73
2021/10/16 04:44:47;;;;;;;;;;;2.40;99.90;;;;;;5066724;28;19904;-71
2021/10/16 04:47:13;;;;;;;;;;;2.30;99.90;;;;;;5066765;28;19904;-72
2021/10/16 04:49:38;;;;;;;;;;;2.30;99.90;;;;;;5080606;28;19908;-73
2021/10/16 04:52:04;;;;;;;;;;;2.40;99.90;;;;;;5086155;28;20015;-72
2021/10/16 04:54:30;;;;;;;;;;;2.50;99.90;;;;;;5057380;28;19911;-71
2021/10/16 04:56:56;;;;;;;;;;;2.70;99.90;;;;;;5080833;28;19927;-75
2021/10/16 04:59:21;;;;;;;;;;;2.80;99.90;;;;;;5087549;28;19904;-73
2021/10/16 05:01:47;;;;;;;;;;;2.80;99.90;;;;;;5083372;28;19950;-71
2021/10/16 05:04:12;;;;;;;;;;;2.80;99.90;;;;;;5083615;28;19935;-73
2021/10/16 05:06:38;;;;;;;;;;;2.80;99.90;;;;;;5084667;28;19958;-72
2021/10/16 05:09:03;;;;;;;;;;;2.90;99.90;;;;;;5074013;28;20267;-72
2021/10/16 05:11:29;;;;;;;;;;;3.20;99.90;;;;;;5062589;28;19904;-72
2021/10/16 05:13:54;;;;;;;;;;;3.30;99.90;;;;;;5078987;28;20352;-72
2021/10/16 05:16:20;;;;;;;;;;;3.50;99.90;;;;;;5081429;28;20291;-73
2021/10/16 05:18:46;;;;;;;;;;;3.50;99.90;;;;;;5063560;28;19916;-71
2021/10/16 05:21:13;;;;;;;;;;;3.70;99.90;;;;;;5070091;28;19908;-72
2021/10/16 05:23:38;;;;;;;;;;;4.10;99.90;;;;;;5080483;28;20035;-71
2021/10/16 05:26:04;;;;;;;;;;;4.20;99.90;;;;;;5071836;28;20338;-73
2021/10/16 05:28:30;;;;;;;;;;;4.00;99.90;;;;;;5076375;28;19927;-71
2021/10/16 05:30:55;;;;;;;;;;;4.00;99.90;;;;;;5090145;28;20042;-71
2021/10/16 05:33:21;;;;;;;;;;;3.90;99.90;;;;;;5088353;28;19940;-71
2021/10/16 05:35:46;;;;;;;;;;;4.00;99.90;;;;;;5064777;28;19990;-71
2021/10/16 05:38:12;;;;;;;;;;;4.10;99.90;;;;;;5075752;28;19910;-71
2021/10/16 05:40:38;;;;;;;;;;;4.20;99.90;;;;;;5057115;28;19919;-72
2021/10/16 05:43:04;;;;;;;;;;;4.40;99.90;;;;;;5077262;28;19951;-72
2021/10/16 05:45:29;;;;;;;;;;;4.50;99.90;;;;;;5064296;28;19982;-71
2021/10/16 05:47:55;;;;;;;;;;;4.60;99.90;;;;;;5070585;28;19904;-71
2021/10/16 05:50:20;;;;;;;;;;;4.50;99.90;;;;;;5076464;28;19904;-71
2021/10/16 05:52:46;;;;;;;;;;;4.50;99.90;;;;;;5075381;28;19984;-71
2021/10/16 05:55:11;;;;;;;;;;;4.50;99.90;;;;;;5081499;28;19995;-73
2021/10/16 05:57:37;;;;;;;;;;;4.60;99.90;;;;;;5084252;28;19923;-71
2021/10/16 06:00:03;;;;;;;;;;;4.70;99.90;;;;;;5056218;28;19939;-73
2021/10/16 06:02:29;;;;;;;;;;;4.70;99.90;;;;;;5063699;28;19911;-73
2021/10/16 06:04:55;;;;;;;;;;;4.80;99.90;;;;;;5080498;28;19994;-71
2021/10/16 06:07:20;;;;;;;;;;;4.90;99.90;;;;;;5062560;28;19904;-71
2021/10/16 06:09:46;;;;;;;;;;;5.00;99.90;;;;;;5071523;28;19913;-72
2021/10/16 06:12:11;;;;;;;;;;;5.20;99.90;;;;;;5074327;28;19913;-72
2021/10/16 06:14:37;;;;;;;;;;;5.20;99.90;;;;;;5063598;28;19967;-71
2021/10/16 06:17:03;;;;;;;;;;;5.20;99.90;;;;;;5076457;28;19965;-73
2021/10/16 06:19:29;;;;;;;;;;;5.00;99.90;;;;;;5067630;28;19904;-71
2021/10/16 06:21:55;;;;;;;;;;;5.10;99.90;;;;;;5066904;28;20305;-71
2021/10/16 06:24:20;;;;;;;;;;;5.10;99.90;;;;;;5072599;28;19931;-72
2021/10/16 06:26:46;;;;;;;;;;;5.10;99.90;;;;;;5072338;28;24068;-72
2021/10/16 06:29:11;;;;;;;;;;;5.10;99.90;;;;;;5078942;28;19936;-72
2021/10/16 06:31:37;;;;;;;;;;;5.20;99.90;;;;;;5084873;28;24074;-71
2021/10/16 06:34:03;;;;;;;;;;;5.20;99.90;;;;;;5066609;28;19904;-71
2021/10/16 06:36:28;;;;;;;;;;;5.20;99.90;;;;;;5057412;28;19904;-71
2021/10/16 06:38:53;;;;;;;;;;;5.20;99.90;;;;;;5077497;28;19968;-73
2021/10/16 06:41:19;;;;;;;;;;;5.20;99.90;;;;;;5070986;28;24065;-70
2021/10/16 06:43:45;;;;;;;;;;;5.30;99.90;;;;;;5058816;28;19948;-71
2021/10/16 06:46:10;;;;;;;;;;;5.30;99.90;;;;;;5076719;28;19947;-71
2021/10/16 06:48:36;;;;;;;;;;;5.40;99.90;;;;;;5077113;28;19943;-70
2021/10/16 06:51:01;;;;;;;;;;;5.30;99.90;;;;;;5075988;28;19919;-70
2021/10/16 06:53:27;;;;;;;;;;;5.50;99.90;;;;;;5075564;28;20288;-71
2021/10/16 06:55:52;;;;;;;;;;;5.60;99.90;;;;;;5065960;28;19908;-71
2021/10/16 06:58:18;;;;;;;;;;;5.70;99.90;;;;;;5076766;28;19917;-72
2021/10/16 07:00:43;;;;;;;;;;;5.80;99.90;;;;;;5076374;28;19951;-72
2021/10/16 07:03:13;;;;;;;;;;;5.80;99.90;;;;;;5072545;28;19939;-71
2021/10/16 07:05:40;;;;;;;;;;;5.90;99.90;;;;;;5069117;28;19966;-70
2021/10/16 07:08:05;;;;;;;;;;;6.10;99.90;;;;;;5060361;28;19912;-71
2021/10/16 07:10:31;;;;;;;;;;;6.10;99.90;;;;;;5073449;28;19919;-70
2021/10/16 07:13:00;;;;;;;;;;;6.30;99.90;;;;;;5071767;28;19986;-70
2021/10/16 07:15:26;;;;;;;;;;;6.40;99.90;;;;;;5073568;28;19912;-71
2021/10/16 07:17:51;;;;;;;;;;;6.30;99.90;;;;;;5071997;28;19987;-70
2021/10/16 07:20:17;;;;;;;;;;;6.50;99.90;;;;;;5076501;28;20295;-71
2021/10/16 07:22:43;;;;;;;;;;;6.60;99.90;;;;;;5071749;28;19912;-69
2021/10/16 07:25:08;;;;;;;;;;;6.60;99.90;;;;;;5070301;28;19908;-75
2021/10/16 07:27:34;;;;;;;;;;;6.70;99.90;;;;;;5077017;28;19911;-70
2021/10/16 07:29:59;;;;;;;;;;;6.80;99.90;;;;;;5077581;28;20283;-71
2021/10/16 07:32:25;;;;;;;;;;;6.80;99.90;;;;;;5074431;28;19908;-70
2021/10/16 07:34:50;;;;;;;;;;;6.90;99.90;;;;;;5056837;28;19948;-71
2021/10/16 07:37:16;;;;;;;;;;;7.10;99.90;;;;;;5078195;28;19931;-70
2021/10/16 07:39:41;;;;;;;;;;;7.00;99.90;;;;;;5065164;28;24080;-70
2021/10/16 07:42:07;;;;;;;;;;;6.90;99.90;;;;;;5060186;28;20332;-71
2021/10/16 07:44:32;;;;;;;;;;;7.10;99.90;;;;;;5076212;28;19927;-70
2021/10/16 07:46:58;;;;;;;;;;;7.00;99.90;;;;;;5070203;28;19909;-72
2021/10/16 07:49:23;;;;;;;;;;;7.20;99.90;;;;;;5081298;28;20478;-71
2021/10/16 07:51:49;;;;;;;;;;;7.20;99.90;;;;;;5055660;28;20276;-69
2021/10/16 07:54:14;;;;;;;;;;;7.00;99.90;;;;;;5075994;28;19950;-70
2021/10/16 07:56:40;;;;;;;;;;;7.30;99.90;;;;;;5073810;28;24078;-72
2021/10/16 07:59:05;;;;;;;;;;;7.30;99.90;;;;;;5071903;28;19908;-71
2021/10/16 08:01:31;;;;;;;;;;;7.40;99.90;;;;;;5058350;28;19917;-71
2021/10/16 08:03:57;;;;;;;;;;;7.60;99.90;;;;;;5077088;28;19930;-70
2021/10/16 08:06:22;;;;;;;;;;;7.70;99.90;;;;;;5062293;28;24101;-71
2021/10/16 08:08:48;;;;;;;;;;;7.90;99.90;;;;;;5072129;28;20030;-72
2021/10/16 08:11:13;;;;;;;;;;;8.10;99.90;;;;;;5054679;28;19905;-71
2021/10/16 08:13:39;;;;;;;;;;;8.30;99.90;;;;;;5075208;28;19962;-71
2021/10/16 08:16:05;;;;;;;;;;;8.40;99.90;;;;;;5075067;28;19909;-72
2021/10/16 08:18:30;;;;;;;;;;;8.20;99.90;;;;;;5059111;28;19904;-71
2021/10/16 08:20:55;;;;;;;;;;;8.20;99.90;;;;;;5075986;28;19912;-70
2021/10/16 08:23:21;;;;;;;;;;;8.40;99.90;;;;;;5051122;28;19987;-70
2021/10/16 08:25:47;;;;;;;;;;;8.70;99.90;;;;;;5075784;28;19947;-71
2021/10/16 08:28:13;;;;;;;;;;;8.60;99.90;;;;;;5069423;28;20303;-73
2021/10/16 08:30:41;;;;;;;;;;;8.80;99.90;;;;;;5059417;28;20600;-71
2021/10/16 08:33:06;;;;;;;;;;;8.80;99.90;;;;;;5074194;28;19915;-71
2021/10/16 08:35:32;;;;;;;;;;;8.90;99.90;;;;;;5080082;28;20162;-71
2021/10/16 08:37:58;;;;;;;;;;;8.90;99.90;;;;;;5080293;28;19915;-71
2021/10/16 08:40:26;;;;;;;;;;;8.70;99.90;;;;;;5080403;28;19939;-72
2021/10/16 08:42:52;;;;;;;;;;;9.10;99.90;;;;;;5069563;28;19904;-70
2021/10/16 08:45:17;;;;;;;;;;;9.30;99.90;;;;;;5073712;28;19915;-72
2021/10/16 08:47:45;;;;;;;;;;;9.60;99.90;;;;;;5074520;28;19917;-71
2021/10/16 08:50:11;;;;;;;;;;;9.80;99.90;;;;;;5061702;28;20278;-71
2021/10/16 08:52:37;;;;;;;;;;;10.10;99.90;;;;;;5084015;28;19919;-70
2021/10/16 08:55:03;;;;;;;;;;;10.20;99.90;;;;;;5079578;28;19918;-71
2021/10/16 08:57:31;;;;;;;;;;;10.10;99.90;;;;;;5079553;28;20018;-70
2021/10/16 08:59:57;;;;;;;;;;;10.20;99.90;;;;;;5060481;28;20439;-71
2021/10/16 09:02:34;;;;;;;;;;;10.70;99.90;;;;;;5077308;28;19967;-71
2021/10/16 09:05:13;;;;;;;;;;;10.90;99.90;;;;;;5054587;28;19904;-71
2021/10/16 09:07:38;;;;;;;;;;;10.80;99.90;;;;;;5073460;28;19909;-71
2021/10/16 09:10:23;;;;;;;;;;;10.90;99.90;;;;;;5051001;28;20006;-71
2021/10/16 09:12:48;;;;;;;;;;;11.10;99.90;;;;;;5068680;28;19908;-72
2021/10/16 09:15:21;;;;;;;;;;;11.30;99.90;;;;;;5071557;28;19912;-72
2021/10/16 09:18:02;;;;;;;;;;;11.40;99.90;;;;;;5081286;28;19908;-71
2021/10/16 09:20:38;;;;;;;;;;;11.60;99.90;;;;;;5077785;28;20371;-72
2021/10/16 09:23:10;;;;;;;;;;;11.60;99.90;;;;;;5076242;28;20336;-71
2021/10/16 09:25:35;;;;;;;;;;;11.80;99.90;;;;;;5079835;28;19965;-73
2021/10/16 09:28:14;;;;;;;;;;;11.70;99.90;;;;;;5063902;28;19948;-72
2021/10/16 09:30:44;;;;;;;;;;;11.80;99.90;;;;;;5078283;28;19999;-71
2021/10/16 09:33:09;;;;;;;;;;;12.10;99.90;;;;;;5080553;28;19995;-72
2021/10/16 09:35:35;;;;;;;;;;;11.80;99.90;;;;;;5061207;28;20412;-71
2021/10/16 09:38:00;;;;;;;;;;;11.70;99.90;;;;;;5075712;28;19934;-71
2021/10/16 09:40:52;;;;;;;;;;;11.60;99.90;;;;;;5084483;28;19915;-72
2021/10/16 09:43:22;;;;;;;;;;;12.00;99.90;;;;;;5084565;28;19936;-71
2021/10/16 09:45:48;;;;;;;;;;;12.10;99.90;;;;;;5062472;28;19915;-71
2021/10/16 09:48:36;;;;;;;;;;;12.20;99.90;;;;;;5081322;28;19904;-71
2021/10/16 09:51:02;;;;;;;;;;;12.70;99.90;;;;;;5080193;28;19912;-71
2021/10/16 09:53:27;;;;;;;;;;;12.50;99.90;;;;;;5069992;28;19919;-74
2021/10/16 09:55:53;;;;;;;;;;;11.90;99.90;;;;;;5080913;28;19916;-70
2021/10/16 09:58:20;;;;;;;;;;;11.50;99.90;;;;;;5071922;28;20359;-71
2021/10/16 10:00:46;;;;;;;;;;;11.90;99.90;;;;;;5076075;28;19919;-71
2021/10/16 10:03:13;;;;;;;;;;;12.40;99.90;;;;;;5064464;28;20284;-72
2021/10/16 10:05:39;;;;;;;;;;;12.10;99.90;;;;;;5082384;28;19908;-71
2021/10/16 10:08:05;;;;;;;;;;;12.40;99.90;;;;;;5075097;28;19936;-70
2021/10/16 10:10:31;;;;;;;;;;;12.50;99.90;;;;;;5075761;28;19947;-71
2021/10/16 10:12:56;;;;;;;;;;;12.60;99.90;;;;;;5078667;28;19916;-70
2021/10/16 10:15:22;;;;;;;;;;;12.80;99.90;;;;;;5073323;28;19915;-71
2021/10/16 10:17:48;;;;;;;;;;;12.90;99.90;;;;;;5081789;28;19912;-70
2021/10/16 10:20:14;;;;;;;;;;;13.20;99.90;;;;;;5081769;28;19908;-70
2021/10/16 10:22:40;;;;;;;;;;;13.30;99.90;;;;;;5060046;28;19908;-71
2021/10/16 10:25:19;;;;;;;;;;;13.20;99.90;;;;;;5074915;28;19982;-72
2021/10/16 10:27:45;;;;;;;;;;;13.10;99.90;;;;;;5063308;28;19915;-72
2021/10/16 10:30:38;;;;;;;;;;;13.00;99.90;;;;;;5079637;28;19904;-74
2021/10/16 10:33:16;;;;;;;;;;;13.00;99.90;;;;;;5083246;28;20336;-71
2021/10/16 10:35:47;;;;;;;;;;;13.20;99.90;;;;;;5064981;28;19954;-71
2021/10/16 10:38:32;;;;;;;;;;;13.30;99.90;;;;;;5081169;28;19944;-72
2021/10/16 10:40:57;;;;;;;;;;;13.80;99.90;;;;;;5062330;28;20050;-72
2021/10/16 10:43:39;;;;;;;;;;;14.00;99.90;;;;;;5080603;28;20015;-72
2021/10/16 10:46:08;;;;;;;;;;;14.40;99.90;;;;;;5080288;28;19946;-71
2021/10/16 10:48:43;;;;;;;;;;;14.80;99.90;;;;;;5081107;28;20030;-72
2021/10/16 10:51:09;;;;;;;;;;;15.40;99.90;;;;;;5087549;28;19905;-70
2021/10/16 10:53:36;;;;;;;;;;;15.90;99.90;;;;;;5065282;28;19931;-70
2021/10/16 10:56:04;;;;;;;;;;;17.10;99.90;;;;;;5059034;28;19904;-72
2021/10/16 10:58:58;;;;;;;;;;;16.80;99.90;;;;;;5076648;28;20010;-72
2021/10/16 11:01:43;;;;;;;;;;;16.10;99.90;;;;;;5064101;28;20571;-71
2021/10/16 11:04:09;;;;;;;;;;;16.10;99.90;;;;;;5062992;28;19961;-71
2021/10/16 11:06:35;;;;;;;;;;;16.30;99.90;;;;;;5058636;28;20360;-72
2021/10/16 11:09:16;;;;;;;;;;;16.40;99.90;;;;;;5084114;28;19916;-71
2021/10/16 11:11:49;;;;;;;;;;;15.50;99.90;;;;;;5063912;28;20444;-71
2021/10/16 11:14:15;;;;;;;;;;;15.00;99.90;;;;;;5081976;28;19904;-68
2021/10/16 11:16:53;;;;;;;;;;;14.70;99.90;;;;;;5079759;28;19904;-71
2021/10/16 11:19:18;;;;;;;;;;;14.50;99.90;;;;;;5076154;28;19904;-72
2021/10/16 11:21:49;;;;;;;;;;;15.10;99.00;;;;;;5077748;28;20028;-73
2021/10/16 11:24:15;;;;;;;;;;;15.10;99.50;;;;;;5079569;28;20318;-72
2021/10/16 11:26:49;;;;;;;;;;;16.00;97.90;;;;;;5064457;28;19907;-72
2021/10/16 11:29:26;;;;;;;;;;;17.50;92.30;;;;;;5074927;28;20246;-72
2021/10/16 11:32:09;;;;;;;;;;;18.00;86.80;;;;;;5073761;28;19922;-72
2021/10/16 11:34:34;;;;;;;;;;;18.80;89.00;;;;;;5077980;28;20418;-71
2021/10/16 11:37:00;;;;;;;;;;;18.50;90.80;;;;;;5055240;28;19954;-72
2021/10/16 11:39:26;;;;;;;;;;;19.50;86.10;;;;;;5058521;28;19912;-71
2021/10/16 11:41:56;;;;;;;;;;;20.40;85.90;;;;;;5080673;28;19998;-71
2021/10/16 11:44:21;;;;;;;;;;;21.10;81.10;;;;;;5076980;28;19910;-71
2021/10/16 11:46:56;;;;;;;;;;;20.70;82.60;;;;;;5063384;28;19954;-72
2021/10/16 11:49:23;;;;;;;;;;;19.80;81.10;;;;;;5064979;28;19912;-72
2021/10/16 11:51:49;;;;;;;;;;;20.80;78.90;;;;;;5077803;28;20004;-74
2021/10/16 11:54:16;;;;;;;;;;;21.10;76.20;;;;;;5052619;28;19995;-71
2021/10/16 11:56:42;;;;;;;;;;;20.90;73.50;;;;;;5080846;28;19924;-70
2021/10/16 11:59:08;;;;;;;;;;;20.00;74.20;;;;;;5060315;28;19934;-71
2021/10/16 12:01:43;;;;;;;;;;;19.30;78.70;;;;;;5071321;28;19916;-72
2021/10/16 12:04:11;;;;;;;;;;;18.20;79.60;;;;;;5074355;28;20291;-71
2021/10/16 12:06:36;;;;;;;;;;;17.20;83.10;;;;;;5078802;28;19920;-72
2021/10/16 12:09:03;;;;;;;;;;;16.70;84.30;;;;;;5084330;28;19961;-71
2021/10/16 12:11:32;;;;;;;;;;;16.70;85.20;;;;;;5061618;28;19912;-71
2021/10/16 12:14:01;;;;;;;;;;;16.00;89.50;;;;;;5082788;28;19948;-72
2021/10/16 12:16:34;;;;;;;;;;;15.80;91.60;;;;;;5084021;28;19955;-71
2021/10/16 12:19:00;;;;;;;;;;;15.90;87.90;;;;;;5051857;28;20007;-72
2021/10/16 12:21:33;;;;;;;;;;;15.80;89.80;;;;;;5077903;28;19970;-71
2021/10/16 12:24:00;;;;;;;;;;;15.70;89.90;;;;;;5070609;28;20372;-71
2021/10/16 12:26:28;;;;;;;;;;;15.60;90.70;;;;;;5073815;28;19955;-71
2021/10/16 12:28:54;;;;;;;;;;;15.50;89.70;;;;;;5066584;28;19913;-71
2021/10/16 12:31:20;;;;;;;;;;;14.90;90.40;;;;;;5080509;28;19912;-73
2021/10/16 12:33:58;;;;;;;;;;;15.10;91.90;;;;;;5090097;28;19912;-71
2021/10/16 12:36:25;;;;;;;;;;;14.80;90.90;;;;;;5076320;28;19908;-71
2021/10/16 12:38:50;;;;;;;;;;;14.80;91.00;;;;;;5083299;28;19934;-74
2021/10/16 12:41:33;;;;;;;;;;;14.70;92.40;;;;;;5079272;28;19920;-71
2021/10/16 12:44:12;;;;;;;;;;;14.80;93.20;;;;;;5078051;28;19916;-71
2021/10/16 12:46:37;;;;;;;;;;;15.00;93.40;;;;;;5080949;28;19920;-71
2021/10/16 12:49:03;;;;;;;;;;;15.30;91.70;;;;;;5077321;28;19912;-71
2021/10/16 12:51:42;;;;;;;;;;;15.60;91.80;;;;;;5074355;28;19912;-71
2021/10/16 12:54:08;;;;;;;;;;;15.80;90.90;;;;;;5070456;28;20686;-71
2021/10/16 12:56:33;;;;;;;;;;;16.20;89.40;;;;;;5083832;28;19912;-71
2021/10/16 12:58:59;;;;;;;;;;;16.30;88.70;;;;;;5069441;28;19919;-72
2021/10/16 13:01:25;;;;;;;;;;;16.00;90.30;;;;;;5082121;28;19920;-71
2021/10/16 13:03:51;;;;;;;;;;;15.60;92.40;;;;;;5076770;28;19913;-74
2021/10/16 13:06:16;;;;;;;;;;;15.10;94.00;;;;;;5077556;28;20710;-72
2021/10/16 13:08:42;;;;;;;;;;;14.90;94.00;;;;;;5084510;28;20016;-72
2021/10/16 13:11:07;;;;;;;;;;;14.70;93.90;;;;;;5078157;28;19920;-72
2021/10/16 13:13:33;;;;;;;;;;;14.60;95.40;;;;;;5067308;28;20574;-71
2021/10/16 13:15:58;;;;;;;;;;;14.30;95.30;;;;;;5085341;28;20030;-74
2021/10/16 13:18:24;;;;;;;;;;;14.10;95.00;;;;;;5081953;28;20372;-71
2021/10/16 13:20:49;;;;;;;;;;;14.60;96.70;;;;;;5065412;28;19955;-72
2021/10/16 13:23:15;;;;;;;;;;;14.60;95.50;;;;;;5065457;28;19912;-71
2021/10/16 13:25:40;;;;;;;;;;;14.50;95.00;;;;;;5079299;28;19955;-71
2021/10/16 13:28:06;;;;;;;;;;;13.90;95.50;;;;;;5081464;28;19917;-72
2021/10/16 13:30:32;;;;;;;;;;;13.70;96.00;;;;;;5062754;28;20295;-71
2021/10/16 13:32:57;;;;;;;;;;;13.80;96.80;;;;;;5087379;28;19970;-71
2021/10/16 13:35:23;;;;;;;;;;;14.00;97.40;;;;;;5082022;28;19919;-71
2021/10/16 13:37:48;;;;;;;;;;;14.40;96.70;;;;;;5057109;28;19955;-71
2021/10/16 13:40:14;;;;;;;;;;;14.00;95.10;;;;;;5068972;28;19916;-71
2021/10/16 13:42:40;;;;;;;;;;;13.90;95.70;;;;;;5082506;28;19912;-71
2021/10/16 13:45:08;;;;;;;;;;;13.70;96.60;;;;;;5077674;28;20434;-72
2021/10/16 13:47:33;;;;;;;;;;;14.10;98.10;;;;;;5065789;28;19915;-71
2021/10/16 13:49:59;;;;;;;;;;;14.60;95.60;;;;;;5062304;28;20378;-71
2021/10/16 13:52:24;;;;;;;;;;;14.20;95.80;;;;;;5076011;28;20026;-72
2021/10/16 13:54:50;;;;;;;;;;;13.70;94.60;;;;;;5082712;28;19994;-72
2021/10/16 13:57:16;;;;;;;;;;;13.50;97.60;;;;;;5067363;28;19920;-71
2021/10/16 13:59:42;;;;;;;;;;;13.60;96.20;;;;;;5056940;28;19912;-72